<?xml version="1.0" encoding="UTF-8" standalone="no" ?>
<gpx xmlns="http://www.topografix.com/GPX/1/1" xmlns:xsi="http://www.w3.org/2001/XMLSchema-instance" xsi:schemaLocation="http://www.topografix.com/GPX/1/1 http://www.topografix.com/GPX/1/1/gpx.xsd" version="1.1" creator="VisuGPX - https://www.visugpx.com">
  <metadata>
    <name>Transcaucasie: Géorgie + Arménie</name>
  </metadata>
  <trk>
    <name><![CDATA[Tour d'Europe: étape 493]]></name>
    <extensions>
      <line xmlns="http://www.topografix.com/GPX/gpx_style/0/2">
        <color>00FF00</color>
        <width>4</width>
      </line>
    </extensions>
    <trkseg>
      <trkpt lat="40.78231" lon="43.84038">
        <ele>1541.561869</ele>
        <time>2021-11-03T04:42:21.511Z</time>
      </trkpt>
      <trkpt lat="40.78315" lon="43.8409">
        <ele>1541.992842</ele>
        <time>2021-11-03T04:56:04.388Z</time>
      </trkpt>
      <trkpt lat="40.78525" lon="43.84117">
        <ele>1547.93372</ele>
        <time>2021-11-03T04:57:21.365Z</time>
      </trkpt>
      <trkpt lat="40.78724" lon="43.8412">
        <ele>1555.485206</ele>
        <time>2021-11-03T04:58:33.348Z</time>
      </trkpt>
      <trkpt lat="40.78737" lon="43.8436">
        <ele>1567.77772</ele>
        <time>2021-11-03T04:59:52.355Z</time>
      </trkpt>
      <trkpt lat="40.78743" lon="43.84659">
        <ele>1572.565504</ele>
        <time>2021-11-03T05:00:54.377Z</time>
      </trkpt>
      <trkpt lat="40.78943" lon="43.84608">
        <ele>1571.644207</ele>
        <time>2021-11-03T05:01:54.369Z</time>
      </trkpt>
      <trkpt lat="40.79156" lon="43.84629">
        <ele>1575.621689</ele>
        <time>2021-11-03T05:03:05.347Z</time>
      </trkpt>
      <trkpt lat="40.79291" lon="43.84754">
        <ele>1578.633128</ele>
        <time>2021-11-03T05:04:14.361Z</time>
      </trkpt>
      <trkpt lat="40.79434" lon="43.84656">
        <ele>1581.796363</ele>
        <time>2021-11-03T05:05:15.363Z</time>
      </trkpt>
      <trkpt lat="40.79651" lon="43.84688">
        <ele>1590.010283</ele>
        <time>2021-11-03T05:06:21.364Z</time>
      </trkpt>
      <trkpt lat="40.79869" lon="43.84721">
        <ele>1592.763187</ele>
        <time>2021-11-03T05:07:22.357Z</time>
      </trkpt>
      <trkpt lat="40.80088" lon="43.84744">
        <ele>1596.87456</ele>
        <time>2021-11-03T05:08:26.412Z</time>
      </trkpt>
      <trkpt lat="40.80246" lon="43.84653">
        <ele>1593.080316</ele>
        <time>2021-11-03T05:19:32.371Z</time>
      </trkpt>
      <trkpt lat="40.80268" lon="43.84366">
        <ele>1591.066694</ele>
        <time>2021-11-03T05:20:35.361Z</time>
      </trkpt>
      <trkpt lat="40.8029" lon="43.84059">
        <ele>1592.435888</ele>
        <time>2021-11-03T05:21:38.365Z</time>
      </trkpt>
      <trkpt lat="40.80354" lon="43.83767">
        <ele>1590.66652</ele>
        <time>2021-11-03T05:22:37.377Z</time>
      </trkpt>
      <trkpt lat="40.80433" lon="43.83557">
        <ele>1589.893167</ele>
        <time>2021-11-03T05:23:40.357Z</time>
      </trkpt>
      <trkpt lat="40.80435" lon="43.83317">
        <ele>1592.470366</ele>
        <time>2021-11-03T05:24:46.371Z</time>
      </trkpt>
      <trkpt lat="40.80642" lon="43.83249">
        <ele>1594.730203</ele>
        <time>2021-11-03T05:25:46.374Z</time>
      </trkpt>
      <trkpt lat="40.80858" lon="43.83175">
        <ele>1601.150721</ele>
        <time>2021-11-03T05:26:50.379Z</time>
      </trkpt>
      <trkpt lat="40.81062" lon="43.83109">
        <ele>1598.921723</ele>
        <time>2021-11-03T05:28:00.369Z</time>
      </trkpt>
      <trkpt lat="40.81279" lon="43.83118">
        <ele>1599.186699</ele>
        <time>2021-11-03T05:29:06.402Z</time>
      </trkpt>
      <trkpt lat="40.81454" lon="43.83056">
        <ele>1599.937776</ele>
        <time>2021-11-03T05:30:07.374Z</time>
      </trkpt>
      <trkpt lat="40.81576" lon="43.82833">
        <ele>1600.9278</ele>
        <time>2021-11-03T05:31:07.371Z</time>
      </trkpt>
      <trkpt lat="40.81712" lon="43.82589">
        <ele>1601.714527</ele>
        <time>2021-11-03T05:32:10.363Z</time>
      </trkpt>
      <trkpt lat="40.81837" lon="43.82368">
        <ele>1604.542439</ele>
        <time>2021-11-03T05:33:10.365Z</time>
      </trkpt>
      <trkpt lat="40.81963" lon="43.82141">
        <ele>1606.772323</ele>
        <time>2021-11-03T05:34:13.381Z</time>
      </trkpt>
      <trkpt lat="40.82083" lon="43.81927">
        <ele>1607.808688</ele>
        <time>2021-11-03T05:35:17.367Z</time>
      </trkpt>
      <trkpt lat="40.82207" lon="43.81707">
        <ele>1611.858818</ele>
        <time>2021-11-03T05:36:26.379Z</time>
      </trkpt>
      <trkpt lat="40.82335" lon="43.81477">
        <ele>1612.90998</ele>
        <time>2021-11-03T05:37:37.369Z</time>
      </trkpt>
      <trkpt lat="40.82457" lon="43.81257">
        <ele>1614.947013</ele>
        <time>2021-11-03T05:38:46.374Z</time>
      </trkpt>
      <trkpt lat="40.82591" lon="43.81017">
        <ele>1618.536942</ele>
        <time>2021-11-03T05:40:03.416Z</time>
      </trkpt>
      <trkpt lat="40.82718" lon="43.80787">
        <ele>1621.078839</ele>
        <time>2021-11-03T05:41:15.375Z</time>
      </trkpt>
      <trkpt lat="40.8284" lon="43.80571">
        <ele>1625.340098</ele>
        <time>2021-11-03T05:42:23.377Z</time>
      </trkpt>
      <trkpt lat="40.8297" lon="43.80342">
        <ele>1627.614009</ele>
        <time>2021-11-03T05:43:34.415Z</time>
      </trkpt>
      <trkpt lat="40.83091" lon="43.80128">
        <ele>1627.769931</ele>
        <time>2021-11-03T05:44:42.366Z</time>
      </trkpt>
      <trkpt lat="40.8323" lon="43.79881">
        <ele>1633.804498</ele>
        <time>2021-11-03T05:46:03.372Z</time>
      </trkpt>
      <trkpt lat="40.83354" lon="43.7966">
        <ele>1636.124438</ele>
        <time>2021-11-03T05:47:13.393Z</time>
      </trkpt>
      <trkpt lat="40.83489" lon="43.79427">
        <ele>1639.724464</ele>
        <time>2021-11-03T05:48:30.384Z</time>
      </trkpt>
      <trkpt lat="40.83629" lon="43.79182">
        <ele>1643.299783</ele>
        <time>2021-11-03T05:49:50.378Z</time>
      </trkpt>
      <trkpt lat="40.83751" lon="43.78968">
        <ele>1646.27708</ele>
        <time>2021-11-03T05:50:58.374Z</time>
      </trkpt>
      <trkpt lat="40.83881" lon="43.78737">
        <ele>1646.441081</ele>
        <time>2021-11-03T05:52:10.377Z</time>
      </trkpt>
      <trkpt lat="40.84008" lon="43.78515">
        <ele>1649.418323</ele>
        <time>2021-11-03T05:53:20.381Z</time>
      </trkpt>
      <trkpt lat="40.84138" lon="43.78287">
        <ele>1652.468145</ele>
        <time>2021-11-03T05:54:31.389Z</time>
      </trkpt>
      <trkpt lat="40.84266" lon="43.78059">
        <ele>1655.533146</ele>
        <time>2021-11-03T05:55:44.375Z</time>
      </trkpt>
      <trkpt lat="40.84392" lon="43.77842">
        <ele>1657.474136</ele>
        <time>2021-11-03T05:56:52.374Z</time>
      </trkpt>
      <trkpt lat="40.84518" lon="43.77617">
        <ele>1658.523098</ele>
        <time>2021-11-03T05:57:59.387Z</time>
      </trkpt>
      <trkpt lat="40.84644" lon="43.77397">
        <ele>1662.146896</ele>
        <time>2021-11-03T05:59:11.380Z</time>
      </trkpt>
      <trkpt lat="40.84778" lon="43.77164">
        <ele>1663.319069</ele>
        <time>2021-11-03T06:00:16.391Z</time>
      </trkpt>
      <trkpt lat="40.84902" lon="43.76943">
        <ele>1664.299668</ele>
        <time>2021-11-03T06:01:17.381Z</time>
      </trkpt>
      <trkpt lat="40.85025" lon="43.76728">
        <ele>1667.008679</ele>
        <time>2021-11-03T06:02:19.392Z</time>
      </trkpt>
      <trkpt lat="40.85157" lon="43.76499">
        <ele>1670.667926</ele>
        <time>2021-11-03T06:03:27.356Z</time>
      </trkpt>
      <trkpt lat="40.85275" lon="43.76282">
        <ele>1670.078204</ele>
        <time>2021-11-03T06:04:33.384Z</time>
      </trkpt>
      <trkpt lat="40.85392" lon="43.76049">
        <ele>1671.168393</ele>
        <time>2021-11-03T06:05:38.364Z</time>
      </trkpt>
      <trkpt lat="40.85549" lon="43.75888">
        <ele>1672.400075</ele>
        <time>2021-11-03T06:06:38.376Z</time>
      </trkpt>
      <trkpt lat="40.85751" lon="43.75852">
        <ele>1677.850032</ele>
        <time>2021-11-03T06:07:53.390Z</time>
      </trkpt>
      <trkpt lat="40.85969" lon="43.75827">
        <ele>1683.688099</ele>
        <time>2021-11-03T06:09:19.360Z</time>
      </trkpt>
      <trkpt lat="40.86162" lon="43.75739">
        <ele>1689.735305</ele>
        <time>2021-11-03T06:10:41.380Z</time>
      </trkpt>
      <trkpt lat="40.86353" lon="43.75629">
        <ele>1695.303272</ele>
        <time>2021-11-03T06:12:19.382Z</time>
      </trkpt>
      <trkpt lat="40.86541" lon="43.75521">
        <ele>1700.120074</ele>
        <time>2021-11-03T06:13:38.380Z</time>
      </trkpt>
      <trkpt lat="40.86731" lon="43.75399">
        <ele>1705.532871</ele>
        <time>2021-11-03T06:14:58.369Z</time>
      </trkpt>
      <trkpt lat="40.86922" lon="43.75269">
        <ele>1711.714996</ele>
        <time>2021-11-03T06:16:17.372Z</time>
      </trkpt>
      <trkpt lat="40.87128" lon="43.75176">
        <ele>1709.116127</ele>
        <time>2021-11-03T06:17:34.376Z</time>
      </trkpt>
      <trkpt lat="40.87342" lon="43.7511">
        <ele>1714.319518</ele>
        <time>2021-11-03T06:18:51.376Z</time>
      </trkpt>
      <trkpt lat="40.87533" lon="43.75053">
        <ele>1726.800063</ele>
        <time>2021-11-03T06:20:52.383Z</time>
      </trkpt>
      <trkpt lat="40.87735" lon="43.74994">
        <ele>1736.314291</ele>
        <time>2021-11-03T06:22:32.392Z</time>
      </trkpt>
      <trkpt lat="40.87938" lon="43.74934">
        <ele>1744.491727</ele>
        <time>2021-11-03T06:24:28.377Z</time>
      </trkpt>
      <trkpt lat="40.88135" lon="43.74872">
        <ele>1752.834669</ele>
        <time>2021-11-03T06:26:01.386Z</time>
      </trkpt>
      <trkpt lat="40.88338" lon="43.74814">
        <ele>1758.975109</ele>
        <time>2021-11-03T06:27:45.367Z</time>
      </trkpt>
      <trkpt lat="40.8854" lon="43.74766">
        <ele>1763.917212</ele>
        <time>2021-11-03T06:29:08.375Z</time>
      </trkpt>
      <trkpt lat="40.88761" lon="43.74746">
        <ele>1763.029315</ele>
        <time>2021-11-03T06:30:15.396Z</time>
      </trkpt>
      <trkpt lat="40.89008" lon="43.74746">
        <ele>1764.024113</ele>
        <time>2021-11-03T06:31:09.381Z</time>
      </trkpt>
      <trkpt lat="40.89095" lon="43.74945">
        <ele>1779.325915</ele>
        <time>2021-11-03T06:33:15.383Z</time>
      </trkpt>
      <trkpt lat="40.89074" lon="43.75207">
        <ele>1797.18014</ele>
        <time>2021-11-03T06:35:48.405Z</time>
      </trkpt>
      <trkpt lat="40.89104" lon="43.75451">
        <ele>1812.249705</ele>
        <time>2021-11-03T06:37:45.401Z</time>
      </trkpt>
      <trkpt lat="40.8921" lon="43.7567">
        <ele>1815.460682</ele>
        <time>2021-11-03T06:39:39.386Z</time>
      </trkpt>
      <trkpt lat="40.89354" lon="43.7591">
        <ele>1813.419304</ele>
        <time>2021-11-03T06:41:17.448Z</time>
      </trkpt>
      <trkpt lat="40.89537" lon="43.76105">
        <ele>1800.886284</ele>
        <time>2021-11-03T06:41:43.392Z</time>
      </trkpt>
      <trkpt lat="40.89772" lon="43.76158">
        <ele>1789.698877</ele>
        <time>2021-11-03T06:42:05.400Z</time>
      </trkpt>
      <trkpt lat="40.89982" lon="43.76195">
        <ele>1780.406427</ele>
        <time>2021-11-03T06:42:25.407Z</time>
      </trkpt>
      <trkpt lat="40.90202" lon="43.76259">
        <ele>1773.115673</ele>
        <time>2021-11-03T06:43:13.384Z</time>
      </trkpt>
      <trkpt lat="40.90364" lon="43.76479">
        <ele>1776.71987</ele>
        <time>2021-11-03T06:44:17.431Z</time>
      </trkpt>
      <trkpt lat="40.90595" lon="43.76599">
        <ele>1769.834501</ele>
        <time>2021-11-03T06:45:04.377Z</time>
      </trkpt>
      <trkpt lat="40.90808" lon="43.76358">
        <ele>1751.767647</ele>
        <time>2021-11-03T06:45:38.429Z</time>
      </trkpt>
      <trkpt lat="40.90938" lon="43.76591">
        <ele>1736.277571</ele>
        <time>2021-11-03T06:46:04.394Z</time>
      </trkpt>
      <trkpt lat="40.91" lon="43.76484">
        <ele>1727.831921</ele>
        <time>2021-11-03T06:46:49.409Z</time>
      </trkpt>
      <trkpt lat="40.91129" lon="43.76302">
        <ele>1729.266166</ele>
        <time>2021-11-03T06:48:02.400Z</time>
      </trkpt>
      <trkpt lat="40.91281" lon="43.76188">
        <ele>1724.897419</ele>
        <time>2021-11-03T06:48:47.384Z</time>
      </trkpt>
      <trkpt lat="40.91076" lon="43.76165">
        <ele>1735.343053</ele>
        <time>2021-11-03T06:50:43.430Z</time>
      </trkpt>
      <trkpt lat="40.90912" lon="43.76034">
        <ele>1752.579568</ele>
        <time>2021-11-03T06:53:02.400Z</time>
      </trkpt>
      <trkpt lat="40.90907" lon="43.75788">
        <ele>1764.253019</ele>
        <time>2021-11-03T06:55:03.399Z</time>
      </trkpt>
      <trkpt lat="40.90929" lon="43.75511">
        <ele>1769.624757</ele>
        <time>2021-11-03T06:56:57.396Z</time>
      </trkpt>
      <trkpt lat="40.91093" lon="43.75458">
        <ele>1775.195792</ele>
        <time>2021-11-03T06:58:21.401Z</time>
      </trkpt>
      <trkpt lat="40.91303" lon="43.75472">
        <ele>1783.845837</ele>
        <time>2021-11-03T07:16:40.423Z</time>
      </trkpt>
      <trkpt lat="40.91514" lon="43.75486">
        <ele>1787.537155</ele>
        <time>2021-11-03T07:17:49.410Z</time>
      </trkpt>
      <trkpt lat="40.91713" lon="43.755">
        <ele>1796.378264</ele>
        <time>2021-11-03T07:19:25.410Z</time>
      </trkpt>
      <trkpt lat="40.91937" lon="43.75513">
        <ele>1802.515893</ele>
        <time>2021-11-03T07:20:55.415Z</time>
      </trkpt>
      <trkpt lat="40.92145" lon="43.75532">
        <ele>1810.629748</ele>
        <time>2021-11-03T07:22:28.424Z</time>
      </trkpt>
      <trkpt lat="40.9233" lon="43.75685">
        <ele>1818.044048</ele>
        <time>2021-11-03T07:24:05.420Z</time>
      </trkpt>
      <trkpt lat="40.92508" lon="43.75828">
        <ele>1822.621652</ele>
        <time>2021-11-03T07:25:25.400Z</time>
      </trkpt>
      <trkpt lat="40.92679" lon="43.75955">
        <ele>1832.387367</ele>
        <time>2021-11-03T07:27:03.407Z</time>
      </trkpt>
      <trkpt lat="40.92859" lon="43.7609">
        <ele>1841.90736</ele>
        <time>2021-11-03T07:28:55.409Z</time>
      </trkpt>
      <trkpt lat="40.93017" lon="43.76264">
        <ele>1846.580226</ele>
        <time>2021-11-03T07:30:23.408Z</time>
      </trkpt>
      <trkpt lat="40.9318" lon="43.76472">
        <ele>1852.58523</ele>
        <time>2021-11-03T07:31:52.399Z</time>
      </trkpt>
      <trkpt lat="40.93328" lon="43.76662">
        <ele>1860.381491</ele>
        <time>2021-11-03T07:33:12.414Z</time>
      </trkpt>
      <trkpt lat="40.93477" lon="43.76853">
        <ele>1864.918305</ele>
        <time>2021-11-03T07:34:33.404Z</time>
      </trkpt>
      <trkpt lat="40.93636" lon="43.77055">
        <ele>1866.314728</ele>
        <time>2021-11-03T07:35:49.430Z</time>
      </trkpt>
      <trkpt lat="40.93797" lon="43.7726">
        <ele>1866.050321</ele>
        <time>2021-11-03T07:36:51.410Z</time>
      </trkpt>
      <trkpt lat="40.93979" lon="43.77457">
        <ele>1868.842422</ele>
        <time>2021-11-03T07:39:31.401Z</time>
      </trkpt>
      <trkpt lat="40.94132" lon="43.77622">
        <ele>1879.134449</ele>
        <time>2021-11-03T07:41:16.392Z</time>
      </trkpt>
      <trkpt lat="40.94286" lon="43.77786">
        <ele>1891.416732</ele>
        <time>2021-11-03T07:43:31.403Z</time>
      </trkpt>
      <trkpt lat="40.94473" lon="43.77912">
        <ele>1900.99507</ele>
        <time>2021-11-03T07:45:15.411Z</time>
      </trkpt>
      <trkpt lat="40.94672" lon="43.7796">
        <ele>1908.838863</ele>
        <time>2021-11-03T07:46:43.444Z</time>
      </trkpt>
      <trkpt lat="40.94902" lon="43.78078">
        <ele>1905.604106</ele>
        <time>2021-11-03T07:47:44.411Z</time>
      </trkpt>
      <trkpt lat="40.95127" lon="43.78253">
        <ele>1894.984682</ele>
        <time>2021-11-03T07:48:24.396Z</time>
      </trkpt>
      <trkpt lat="40.95305" lon="43.78513">
        <ele>1892.298562</ele>
        <time>2021-11-03T07:49:04.409Z</time>
      </trkpt>
      <trkpt lat="40.95133" lon="43.7864">
        <ele>1890.992476</ele>
        <time>2021-11-03T07:50:15.427Z</time>
      </trkpt>
      <trkpt lat="40.94895" lon="43.78758">
        <ele>1879.296374</ele>
        <time>2021-11-03T07:50:55.434Z</time>
      </trkpt>
      <trkpt lat="40.94878" lon="43.78848">
        <ele>1862.989371</ele>
        <time>2021-11-03T07:51:42.413Z</time>
      </trkpt>
      <trkpt lat="40.95091" lon="43.78917">
        <ele>1850.526011</ele>
        <time>2021-11-03T07:52:29.400Z</time>
      </trkpt>
      <trkpt lat="40.95143" lon="43.78949">
        <ele>1841.146507</ele>
        <time>2021-11-03T07:53:13.405Z</time>
      </trkpt>
      <trkpt lat="40.94988" lon="43.79081">
        <ele>1827.832349</ele>
        <time>2021-11-03T07:54:21.423Z</time>
      </trkpt>
      <trkpt lat="40.94811" lon="43.79112">
        <ele>1843.716736</ele>
        <time>2021-11-03T07:56:49.403Z</time>
      </trkpt>
      <trkpt lat="40.94992" lon="43.79193">
        <ele>1858.891197</ele>
        <time>2021-11-03T07:59:02.423Z</time>
      </trkpt>
      <trkpt lat="40.94796" lon="43.79167">
        <ele>1868.724239</ele>
        <time>2021-11-03T08:00:49.429Z</time>
      </trkpt>
      <trkpt lat="40.94674" lon="43.79313">
        <ele>1878.940755</ele>
        <time>2021-11-03T08:02:51.403Z</time>
      </trkpt>
      <trkpt lat="40.9478" lon="43.79536">
        <ele>1890.340852</ele>
        <time>2021-11-03T08:04:56.392Z</time>
      </trkpt>
      <trkpt lat="40.94914" lon="43.7972">
        <ele>1901.43309</ele>
        <time>2021-11-03T08:06:56.409Z</time>
      </trkpt>
      <trkpt lat="40.94989" lon="43.79967">
        <ele>1908.188312</ele>
        <time>2021-11-03T08:08:45.412Z</time>
      </trkpt>
      <trkpt lat="40.94979" lon="43.8023">
        <ele>1914.486365</ele>
        <time>2021-11-03T08:10:12.440Z</time>
      </trkpt>
      <trkpt lat="40.94973" lon="43.80514">
        <ele>1919.162003</ele>
        <time>2021-11-03T08:11:21.405Z</time>
      </trkpt>
      <trkpt lat="40.94967" lon="43.80777">
        <ele>1923.596509</ele>
        <time>2021-11-03T08:12:49.419Z</time>
      </trkpt>
      <trkpt lat="40.9496" lon="43.81056">
        <ele>1926.647408</ele>
        <time>2021-11-03T08:13:53.413Z</time>
      </trkpt>
      <trkpt lat="40.94951" lon="43.8134">
        <ele>1929.958938</ele>
        <time>2021-11-03T08:14:57.408Z</time>
      </trkpt>
      <trkpt lat="40.9494" lon="43.8161">
        <ele>1933.806748</ele>
        <time>2021-11-03T08:16:04.414Z</time>
      </trkpt>
      <trkpt lat="40.94935" lon="43.81902">
        <ele>1937.178736</ele>
        <time>2021-11-03T08:17:14.392Z</time>
      </trkpt>
      <trkpt lat="40.94926" lon="43.82213">
        <ele>1938.914389</ele>
        <time>2021-11-03T08:18:14.428Z</time>
      </trkpt>
      <trkpt lat="40.94889" lon="43.82473">
        <ele>1943.909461</ele>
        <time>2021-11-03T08:19:17.412Z</time>
      </trkpt>
      <trkpt lat="40.94848" lon="43.8275">
        <ele>1947.795917</ele>
        <time>2021-11-03T08:20:24.410Z</time>
      </trkpt>
      <trkpt lat="40.94808" lon="43.83018">
        <ele>1951.882128</ele>
        <time>2021-11-03T08:21:34.404Z</time>
      </trkpt>
      <trkpt lat="40.94758" lon="43.83295">
        <ele>1955.040269</ele>
        <time>2021-11-03T08:22:48.418Z</time>
      </trkpt>
      <trkpt lat="40.94696" lon="43.83562">
        <ele>1954.524214</ele>
        <time>2021-11-03T08:23:38.417Z</time>
      </trkpt>
      <trkpt lat="40.94631" lon="43.83843">
        <ele>1954.116501</ele>
        <time>2021-11-03T08:24:33.443Z</time>
      </trkpt>
      <trkpt lat="40.94564" lon="43.84129">
        <ele>1955.000206</ele>
        <time>2021-11-03T08:25:36.427Z</time>
      </trkpt>
      <trkpt lat="40.94499" lon="43.84416">
        <ele>1955.950697</ele>
        <time>2021-11-03T08:26:36.418Z</time>
      </trkpt>
      <trkpt lat="40.94434" lon="43.84689">
        <ele>1967.494631</ele>
        <time>2021-11-03T08:28:03.409Z</time>
      </trkpt>
      <trkpt lat="40.94374" lon="43.84949">
        <ele>1970.948297</ele>
        <time>2021-11-03T08:29:15.419Z</time>
      </trkpt>
      <trkpt lat="40.9431" lon="43.85224">
        <ele>1970.702103</ele>
        <time>2021-11-03T08:30:15.408Z</time>
      </trkpt>
      <trkpt lat="40.94248" lon="43.85496">
        <ele>1973.037131</ele>
        <time>2021-11-03T08:31:18.420Z</time>
      </trkpt>
      <trkpt lat="40.94184" lon="43.85774">
        <ele>1976.914116</ele>
        <time>2021-11-03T08:32:18.421Z</time>
      </trkpt>
      <trkpt lat="40.94119" lon="43.86049">
        <ele>1980.771185</ele>
        <time>2021-11-03T08:33:22.404Z</time>
      </trkpt>
      <trkpt lat="40.94131" lon="43.86254">
        <ele>1986.981948</ele>
        <time>2021-11-03T08:34:58.404Z</time>
      </trkpt>
      <trkpt lat="40.94354" lon="43.86321">
        <ele>1987.341735</ele>
        <time>2021-11-03T08:36:00.423Z</time>
      </trkpt>
      <trkpt lat="40.94554" lon="43.86517">
        <ele>1986.897702</ele>
        <time>2021-11-03T08:37:03.433Z</time>
      </trkpt>
      <trkpt lat="40.94707" lon="43.86728">
        <ele>1987.484148</ele>
        <time>2021-11-03T08:38:00.416Z</time>
      </trkpt>
      <trkpt lat="40.94745" lon="43.87072">
        <ele>1986.69943</ele>
        <time>2021-11-03T08:39:03.408Z</time>
      </trkpt>
      <trkpt lat="40.9483" lon="43.87334">
        <ele>1986.797295</ele>
        <time>2021-11-03T08:39:50.416Z</time>
      </trkpt>
      <trkpt lat="40.95015" lon="43.87297">
        <ele>2001.919451</ele>
        <time>2021-11-03T08:41:26.420Z</time>
      </trkpt>
      <trkpt lat="40.95201" lon="43.87187">
        <ele>2015.328384</ele>
        <time>2021-11-03T08:43:25.430Z</time>
      </trkpt>
      <trkpt lat="40.95369" lon="43.87165">
        <ele>2025.415427</ele>
        <time>2021-11-03T08:45:20.420Z</time>
      </trkpt>
      <trkpt lat="40.95535" lon="43.87343">
        <ele>2032.118957</ele>
        <time>2021-11-03T08:46:59.424Z</time>
      </trkpt>
      <trkpt lat="40.95717" lon="43.87451">
        <ele>2045.360671</ele>
        <time>2021-11-03T08:48:53.437Z</time>
      </trkpt>
      <trkpt lat="40.95831" lon="43.87649">
        <ele>2062.790809</ele>
        <time>2021-11-03T08:51:25.419Z</time>
      </trkpt>
      <trkpt lat="40.95882" lon="43.87907">
        <ele>2080.948247</ele>
        <time>2021-11-03T08:54:19.426Z</time>
      </trkpt>
      <trkpt lat="40.96014" lon="43.88074">
        <ele>2099.657123</ele>
        <time>2021-11-03T08:56:54.416Z</time>
      </trkpt>
      <trkpt lat="40.96218" lon="43.88149">
        <ele>2107.869106</ele>
        <time>2021-11-03T08:58:45.415Z</time>
      </trkpt>
      <trkpt lat="40.96407" lon="43.88245">
        <ele>2110.154093</ele>
        <time>2021-11-03T09:00:23.390Z</time>
      </trkpt>
      <trkpt lat="40.96553" lon="43.88464">
        <ele>2107.477334</ele>
        <time>2021-11-03T09:01:28.436Z</time>
      </trkpt>
      <trkpt lat="40.96761" lon="43.88609">
        <ele>2110.321468</ele>
        <time>2021-11-03T09:02:31.435Z</time>
      </trkpt>
      <trkpt lat="40.9696" lon="43.88746">
        <ele>2108.319785</ele>
        <time>2021-11-03T09:03:27.441Z</time>
      </trkpt>
      <trkpt lat="40.97186" lon="43.88959">
        <ele>2100.477222</ele>
        <time>2021-11-03T09:04:07.443Z</time>
      </trkpt>
      <trkpt lat="40.97317" lon="43.89278">
        <ele>2087.305157</ele>
        <time>2021-11-03T09:04:40.487Z</time>
      </trkpt>
      <trkpt lat="40.97378" lon="43.89534">
        <ele>2074.292042</ele>
        <time>2021-11-03T09:05:04.426Z</time>
      </trkpt>
      <trkpt lat="40.97432" lon="43.89874">
        <ele>2054.866225</ele>
        <time>2021-11-03T09:05:40.438Z</time>
      </trkpt>
      <trkpt lat="40.97627" lon="43.89755">
        <ele>2053.525219</ele>
        <time>2021-11-03T09:18:50.431Z</time>
      </trkpt>
      <trkpt lat="40.9785" lon="43.89553">
        <ele>2045.589386</ele>
        <time>2021-11-03T09:19:38.431Z</time>
      </trkpt>
      <trkpt lat="40.98046" lon="43.89472">
        <ele>2039.172403</ele>
        <time>2021-11-03T09:20:00.423Z</time>
      </trkpt>
      <trkpt lat="40.98256" lon="43.89384">
        <ele>2035.434522</ele>
        <time>2021-11-03T09:20:24.439Z</time>
      </trkpt>
      <trkpt lat="40.9855" lon="43.89265">
        <ele>2033.693517</ele>
        <time>2021-11-03T09:21:06.425Z</time>
      </trkpt>
      <trkpt lat="40.98764" lon="43.89176">
        <ele>2032.325064</ele>
        <time>2021-11-03T09:21:46.418Z</time>
      </trkpt>
      <trkpt lat="40.98968" lon="43.89093">
        <ele>2030.734934</ele>
        <time>2021-11-03T09:22:30.427Z</time>
      </trkpt>
      <trkpt lat="40.9918" lon="43.89006">
        <ele>2029.83906</ele>
        <time>2021-11-03T09:23:10.418Z</time>
      </trkpt>
      <trkpt lat="40.99392" lon="43.88918">
        <ele>2030.519962</ele>
        <time>2021-11-03T09:23:50.419Z</time>
      </trkpt>
      <trkpt lat="40.99606" lon="43.88831">
        <ele>2029.145292</ele>
        <time>2021-11-03T09:24:32.426Z</time>
      </trkpt>
      <trkpt lat="40.99807" lon="43.88748">
        <ele>2029.155916</ele>
        <time>2021-11-03T09:25:12.426Z</time>
      </trkpt>
      <trkpt lat="41.0003" lon="43.88657">
        <ele>2028.179564</ele>
        <time>2021-11-03T09:25:54.436Z</time>
      </trkpt>
      <trkpt lat="41.00223" lon="43.88578">
        <ele>2026.895026</ele>
        <time>2021-11-03T09:26:35.431Z</time>
      </trkpt>
      <trkpt lat="41.00433" lon="43.88492">
        <ele>2024.971835</ele>
        <time>2021-11-03T09:27:15.440Z</time>
      </trkpt>
      <trkpt lat="41.00675" lon="43.88394">
        <ele>2021.098051</ele>
        <time>2021-11-03T09:27:57.430Z</time>
      </trkpt>
      <trkpt lat="41.00889" lon="43.88304">
        <ele>2018.211742</ele>
        <time>2021-11-03T09:28:37.434Z</time>
      </trkpt>
      <trkpt lat="41.01104" lon="43.88217">
        <ele>2017.918465</ele>
        <time>2021-11-03T09:29:21.440Z</time>
      </trkpt>
      <trkpt lat="41.013" lon="43.88219">
        <ele>2022.097263</ele>
        <time>2021-11-03T09:30:10.429Z</time>
      </trkpt>
      <trkpt lat="41.01458" lon="43.88368">
        <ele>2034.14166</ele>
        <time>2021-11-03T09:31:58.433Z</time>
      </trkpt>
      <trkpt lat="41.01659" lon="43.88381">
        <ele>2044.842191</ele>
        <time>2021-11-03T09:33:58.439Z</time>
      </trkpt>
      <trkpt lat="41.01828" lon="43.88236">
        <ele>2049.102042</ele>
        <time>2021-11-03T09:35:16.431Z</time>
      </trkpt>
      <trkpt lat="41.02027" lon="43.8807">
        <ele>2046.050864</ele>
        <time>2021-11-03T09:36:07.412Z</time>
      </trkpt>
      <trkpt lat="41.02248" lon="43.87889">
        <ele>2037.219829</ele>
        <time>2021-11-03T09:36:39.463Z</time>
      </trkpt>
      <trkpt lat="41.02473" lon="43.87761">
        <ele>2025.465604</ele>
        <time>2021-11-03T09:37:05.433Z</time>
      </trkpt>
      <trkpt lat="41.02695" lon="43.87733">
        <ele>2017.211939</ele>
        <time>2021-11-03T09:37:26.424Z</time>
      </trkpt>
      <trkpt lat="41.02877" lon="43.87479">
        <ele>2009.998156</ele>
        <time>2021-11-03T09:37:56.426Z</time>
      </trkpt>
      <trkpt lat="41.03034" lon="43.87211">
        <ele>2010.752097</ele>
        <time>2021-11-03T09:38:44.425Z</time>
      </trkpt>
      <trkpt lat="41.0317" lon="43.87045">
        <ele>2016.400714</ele>
        <time>2021-11-03T09:43:05.428Z</time>
      </trkpt>
      <trkpt lat="41.03331" lon="43.86819">
        <ele>2016.733169</ele>
        <time>2021-11-03T09:43:59.430Z</time>
      </trkpt>
      <trkpt lat="41.03558" lon="43.8655">
        <ele>2008.623671</ele>
        <time>2021-11-03T09:44:41.440Z</time>
      </trkpt>
      <trkpt lat="41.03655" lon="43.86299">
        <ele>2010.84342</ele>
        <time>2021-11-03T09:45:37.487Z</time>
      </trkpt>
      <trkpt lat="41.03817" lon="43.86126">
        <ele>2022.253298</ele>
        <time>2021-11-03T09:47:04.432Z</time>
      </trkpt>
      <trkpt lat="41.04013" lon="43.86019">
        <ele>2020.962679</ele>
        <time>2021-11-03T09:47:58.438Z</time>
      </trkpt>
      <trkpt lat="41.04157" lon="43.85833">
        <ele>2025.67918</ele>
        <time>2021-11-03T09:49:12.413Z</time>
      </trkpt>
      <trkpt lat="41.04322" lon="43.85664">
        <ele>2036.544501</ele>
        <time>2021-11-03T09:51:06.476Z</time>
      </trkpt>
      <trkpt lat="41.04511" lon="43.85529">
        <ele>2033.101095</ele>
        <time>2021-11-03T09:52:00.436Z</time>
      </trkpt>
      <trkpt lat="41.04693" lon="43.85309">
        <ele>2031.624975</ele>
        <time>2021-11-03T09:53:01.426Z</time>
      </trkpt>
      <trkpt lat="41.04849" lon="43.85164">
        <ele>2041.134406</ele>
        <time>2021-11-03T09:54:36.443Z</time>
      </trkpt>
      <trkpt lat="41.05043" lon="43.852">
        <ele>2056.105222</ele>
        <time>2021-11-03T09:56:26.430Z</time>
      </trkpt>
      <trkpt lat="41.05251" lon="43.85185">
        <ele>2059.414566</ele>
        <time>2021-11-03T09:57:59.423Z</time>
      </trkpt>
      <trkpt lat="41.05441" lon="43.85036">
        <ele>2056.114301</ele>
        <time>2021-11-03T09:58:48.448Z</time>
      </trkpt>
      <trkpt lat="41.05613" lon="43.84884">
        <ele>2050.558484</ele>
        <time>2021-11-03T09:59:30.472Z</time>
      </trkpt>
      <trkpt lat="41.05782" lon="43.84728">
        <ele>2045.14133</ele>
        <time>2021-11-03T10:00:14.432Z</time>
      </trkpt>
      <trkpt lat="41.05991" lon="43.84536">
        <ele>2039.987166</ele>
        <time>2021-11-03T10:00:56.473Z</time>
      </trkpt>
      <trkpt lat="41.06214" lon="43.8433">
        <ele>2033.951693</ele>
        <time>2021-11-03T10:01:36.442Z</time>
      </trkpt>
      <trkpt lat="41.06483" lon="43.84078">
        <ele>2026.504287</ele>
        <time>2021-11-03T10:02:16.436Z</time>
      </trkpt>
      <trkpt lat="41.06696" lon="43.83881">
        <ele>2025.347576</ele>
        <time>2021-11-03T10:03:05.448Z</time>
      </trkpt>
      <trkpt lat="41.06869" lon="43.83722">
        <ele>2027.254501</ele>
        <time>2021-11-03T10:04:05.459Z</time>
      </trkpt>
      <trkpt lat="41.07047" lon="43.83554">
        <ele>2027.601878</ele>
        <time>2021-11-03T10:13:53.453Z</time>
      </trkpt>
      <trkpt lat="41.07231" lon="43.83383">
        <ele>2033.668966</ele>
        <time>2021-11-03T10:15:12.428Z</time>
      </trkpt>
      <trkpt lat="41.07408" lon="43.8321">
        <ele>2037.81233</ele>
        <time>2021-11-03T10:16:33.441Z</time>
      </trkpt>
      <trkpt lat="41.07554" lon="43.83016">
        <ele>2040.003611</ele>
        <time>2021-11-03T10:17:37.443Z</time>
      </trkpt>
      <trkpt lat="41.07699" lon="43.82825">
        <ele>2044.257531</ele>
        <time>2021-11-03T10:18:50.438Z</time>
      </trkpt>
      <trkpt lat="41.07853" lon="43.8262">
        <ele>2049.007739</ele>
        <time>2021-11-03T10:20:14.436Z</time>
      </trkpt>
      <trkpt lat="41.08004" lon="43.82428">
        <ele>2053.469647</ele>
        <time>2021-11-03T10:21:34.446Z</time>
      </trkpt>
      <trkpt lat="41.08158" lon="43.82244">
        <ele>2058.812994</ele>
        <time>2021-11-03T10:22:54.424Z</time>
      </trkpt>
      <trkpt lat="41.08317" lon="43.82062">
        <ele>2062.772977</ele>
        <time>2021-11-03T10:24:25.451Z</time>
      </trkpt>
      <trkpt lat="41.08475" lon="43.81903">
        <ele>2063.352884</ele>
        <time>2021-11-03T10:25:29.468Z</time>
      </trkpt>
      <trkpt lat="41.08673" lon="43.8176">
        <ele>2059.98279</ele>
        <time>2021-11-03T10:26:27.477Z</time>
      </trkpt>
      <trkpt lat="41.08882" lon="43.81654">
        <ele>2057.851359</ele>
        <time>2021-11-03T10:27:18.457Z</time>
      </trkpt>
      <trkpt lat="41.09085" lon="43.81567">
        <ele>2058.810868</ele>
        <time>2021-11-03T10:52:24.450Z</time>
      </trkpt>
      <trkpt lat="41.09295" lon="43.81532">
        <ele>2064.550469</ele>
        <time>2021-11-03T10:53:48.458Z</time>
      </trkpt>
      <trkpt lat="41.09504" lon="43.81491">
        <ele>2069.204709</ele>
        <time>2021-11-03T10:55:08.455Z</time>
      </trkpt>
      <trkpt lat="41.09724" lon="43.81431">
        <ele>2073.050444</ele>
        <time>2021-11-03T10:56:31.464Z</time>
      </trkpt>
      <trkpt lat="41.09921" lon="43.8134">
        <ele>2075.780687</ele>
        <time>2021-11-03T10:57:41.455Z</time>
      </trkpt>
      <trkpt lat="41.10121" lon="43.81243">
        <ele>2079.681806</ele>
        <time>2021-11-03T10:58:53.446Z</time>
      </trkpt>
      <trkpt lat="41.10348" lon="43.81158">
        <ele>2086.328576</ele>
        <time>2021-11-03T11:00:15.453Z</time>
      </trkpt>
      <trkpt lat="41.10544" lon="43.81088">
        <ele>2091.68844</ele>
        <time>2021-11-03T11:01:35.453Z</time>
      </trkpt>
      <trkpt lat="41.1075" lon="43.8103">
        <ele>2095.468786</ele>
        <time>2021-11-03T11:02:59.449Z</time>
      </trkpt>
      <trkpt lat="41.10952" lon="43.80991">
        <ele>2099.380503</ele>
        <time>2021-11-03T11:04:19.456Z</time>
      </trkpt>
      <trkpt lat="41.11154" lon="43.80955">
        <ele>2103.799067</ele>
        <time>2021-11-03T11:05:39.457Z</time>
      </trkpt>
      <trkpt lat="41.11374" lon="43.80904">
        <ele>2109.463742</ele>
        <time>2021-11-03T11:07:03.445Z</time>
      </trkpt>
      <trkpt lat="41.11569" lon="43.80855">
        <ele>2116.954608</ele>
        <time>2021-11-03T11:08:25.460Z</time>
      </trkpt>
      <trkpt lat="41.11785" lon="43.80826">
        <ele>2124.355024</ele>
        <time>2021-11-03T11:09:51.455Z</time>
      </trkpt>
      <trkpt lat="41.11996" lon="43.8084">
        <ele>2129.652362</ele>
        <time>2021-11-03T11:11:13.497Z</time>
      </trkpt>
      <trkpt lat="41.1221" lon="43.80875">
        <ele>2132.661121</ele>
        <time>2021-11-03T11:12:26.451Z</time>
      </trkpt>
      <trkpt lat="41.12416" lon="43.80907">
        <ele>2132.714904</ele>
        <time>2021-11-03T11:13:30.450Z</time>
      </trkpt>
      <trkpt lat="41.12621" lon="43.80854">
        <ele>2134.0941</ele>
        <time>2021-11-03T11:14:35.463Z</time>
      </trkpt>
      <trkpt lat="41.12832" lon="43.8073">
        <ele>2136.07681</ele>
        <time>2021-11-03T11:15:52.478Z</time>
      </trkpt>
      <trkpt lat="41.13014" lon="43.8057">
        <ele>2136.886936</ele>
        <time>2021-11-03T11:16:52.436Z</time>
      </trkpt>
      <trkpt lat="41.13182" lon="43.80407">
        <ele>2140.556195</ele>
        <time>2021-11-03T11:17:52.440Z</time>
      </trkpt>
      <trkpt lat="41.13379" lon="43.80207">
        <ele>2135.764022</ele>
        <time>2021-11-03T11:18:41.459Z</time>
      </trkpt>
      <trkpt lat="41.13542" lon="43.80013">
        <ele>2140.50777</ele>
        <time>2021-11-03T11:19:40.463Z</time>
      </trkpt>
      <trkpt lat="41.13681" lon="43.79809">
        <ele>2153.34755</ele>
        <time>2021-11-03T11:21:25.497Z</time>
      </trkpt>
      <trkpt lat="41.13839" lon="43.79607">
        <ele>2160.85074</ele>
        <time>2021-11-03T11:37:03.490Z</time>
      </trkpt>
      <trkpt lat="41.13884" lon="43.79338">
        <ele>2169.406731</ele>
        <time>2021-11-03T11:40:39.462Z</time>
      </trkpt>
      <trkpt lat="41.14051" lon="43.79206">
        <ele>2184.952394</ele>
        <time>2021-11-03T11:42:04.463Z</time>
      </trkpt>
      <trkpt lat="41.14209" lon="43.79021">
        <ele>2167.767427</ele>
        <time>2021-11-03T11:43:15.474Z</time>
      </trkpt>
      <trkpt lat="41.14393" lon="43.78806">
        <ele>2167.873198</ele>
        <time>2021-11-03T11:50:43.470Z</time>
      </trkpt>
      <trkpt lat="41.14567" lon="43.78632">
        <ele>2167.82908</ele>
        <time>2021-11-03T11:51:45.487Z</time>
      </trkpt>
      <trkpt lat="41.14784" lon="43.78476">
        <ele>2162.521566</ele>
        <time>2021-11-03T11:52:42.471Z</time>
      </trkpt>
      <trkpt lat="41.14969" lon="43.78345">
        <ele>2158.980974</ele>
        <time>2021-11-03T11:53:24.461Z</time>
      </trkpt>
      <trkpt lat="41.15159" lon="43.78168">
        <ele>2155.748817</ele>
        <time>2021-11-03T11:54:24.463Z</time>
      </trkpt>
      <trkpt lat="41.15363" lon="43.77975">
        <ele>2155.087837</ele>
        <time>2021-11-03T11:55:27.473Z</time>
      </trkpt>
      <trkpt lat="41.1553" lon="43.77801">
        <ele>2154.46272</ele>
        <time>2021-11-03T11:56:27.464Z</time>
      </trkpt>
      <trkpt lat="41.15704" lon="43.7762">
        <ele>2153.522969</ele>
        <time>2021-11-03T11:57:27.476Z</time>
      </trkpt>
      <trkpt lat="41.15891" lon="43.77416">
        <ele>2149.495703</ele>
        <time>2021-11-03T11:58:30.472Z</time>
      </trkpt>
      <trkpt lat="41.16055" lon="43.7724">
        <ele>2148.679756</ele>
        <time>2021-11-03T11:59:32.473Z</time>
      </trkpt>
      <trkpt lat="41.16249" lon="43.77029">
        <ele>2144.576314</ele>
        <time>2021-11-03T12:00:16.460Z</time>
      </trkpt>
      <trkpt lat="41.16489" lon="43.76795">
        <ele>2136.355325</ele>
        <time>2021-11-03T12:00:56.466Z</time>
      </trkpt>
      <trkpt lat="41.16685" lon="43.766">
        <ele>2132.784099</ele>
        <time>2021-11-03T12:01:36.466Z</time>
      </trkpt>
      <trkpt lat="41.16895" lon="43.76438">
        <ele>2131.55929</ele>
        <time>2021-11-03T12:02:32.475Z</time>
      </trkpt>
      <trkpt lat="41.17089" lon="43.76313">
        <ele>2136.5723</ele>
        <time>2021-11-03T12:03:36.497Z</time>
      </trkpt>
      <trkpt lat="41.17282" lon="43.76179">
        <ele>2145.056311</ele>
        <time>2021-11-03T12:05:16.501Z</time>
      </trkpt>
      <trkpt lat="41.1746" lon="43.76048">
        <ele>2150.790394</ele>
        <time>2021-11-03T12:06:49.495Z</time>
      </trkpt>
      <trkpt lat="41.17631" lon="43.75925">
        <ele>2153.150026</ele>
        <time>2021-11-03T12:07:51.464Z</time>
      </trkpt>
      <trkpt lat="41.17827" lon="43.75781">
        <ele>2151.512251</ele>
        <time>2021-11-03T12:09:01.521Z</time>
      </trkpt>
      <trkpt lat="41.18076" lon="43.75586">
        <ele>2144.289392</ele>
        <time>2021-11-03T12:09:41.470Z</time>
      </trkpt>
      <trkpt lat="41.18272" lon="43.75434">
        <ele>2144.421775</ele>
        <time>2021-11-03T12:10:31.481Z</time>
      </trkpt>
      <trkpt lat="41.18463" lon="43.7521">
        <ele>2138.060917</ele>
        <time>2021-11-03T12:11:20.462Z</time>
      </trkpt>
      <trkpt lat="41.18605" lon="43.7504">
        <ele>2130.838028</ele>
        <time>2021-11-03T12:11:40.467Z</time>
      </trkpt>
      <trkpt lat="41.18783" lon="43.74825">
        <ele>2122.274298</ele>
        <time>2021-11-03T12:12:06.499Z</time>
      </trkpt>
      <trkpt lat="41.18927" lon="43.74544">
        <ele>2121.18571</ele>
        <time>2021-11-03T12:12:49.509Z</time>
      </trkpt>
      <trkpt lat="41.18938" lon="43.74219">
        <ele>2123.910535</ele>
        <time>2021-11-03T12:15:17.482Z</time>
      </trkpt>
      <trkpt lat="41.18951" lon="43.73942">
        <ele>2124.7151</ele>
        <time>2021-11-03T12:16:22.477Z</time>
      </trkpt>
      <trkpt lat="41.19023" lon="43.73655">
        <ele>2124.460197</ele>
        <time>2021-11-03T12:17:27.478Z</time>
      </trkpt>
      <trkpt lat="41.19106" lon="43.73388">
        <ele>2128.630587</ele>
        <time>2021-11-03T12:18:48.471Z</time>
      </trkpt>
      <trkpt lat="41.1921" lon="43.73134">
        <ele>2124.276439</ele>
        <time>2021-11-03T12:19:35.480Z</time>
      </trkpt>
      <trkpt lat="41.19355" lon="43.72852">
        <ele>2114.321019</ele>
        <time>2021-11-03T12:20:09.475Z</time>
      </trkpt>
      <trkpt lat="41.19474" lon="43.72633">
        <ele>2104.771198</ele>
        <time>2021-11-03T12:20:29.496Z</time>
      </trkpt>
      <trkpt lat="41.19627" lon="43.72359">
        <ele>2097.498494</ele>
        <time>2021-11-03T12:21:02.459Z</time>
      </trkpt>
      <trkpt lat="41.1977" lon="43.72114">
        <ele>2097.813908</ele>
        <time>2021-11-03T12:21:55.479Z</time>
      </trkpt>
      <trkpt lat="41.19905" lon="43.71849">
        <ele>2096.597995</ele>
        <time>2021-11-03T12:22:55.476Z</time>
      </trkpt>
      <trkpt lat="41.20047" lon="43.71586">
        <ele>2092.600443</ele>
        <time>2021-11-03T12:23:52.476Z</time>
      </trkpt>
      <trkpt lat="41.20184" lon="43.71309">
        <ele>2086.254023</ele>
        <time>2021-11-03T12:24:32.495Z</time>
      </trkpt>
      <trkpt lat="41.20302" lon="43.71082">
        <ele>2082.087054</ele>
        <time>2021-11-03T12:25:13.488Z</time>
      </trkpt>
      <trkpt lat="41.20456" lon="43.70866">
        <ele>2079.643505</ele>
        <time>2021-11-03T12:26:10.469Z</time>
      </trkpt>
      <trkpt lat="41.20612" lon="43.7063">
        <ele>2076.202989</ele>
        <time>2021-11-03T12:27:09.481Z</time>
      </trkpt>
      <trkpt lat="41.20776" lon="43.7039">
        <ele>2072.104352</ele>
        <time>2021-11-03T12:28:04.470Z</time>
      </trkpt>
      <trkpt lat="41.20935" lon="43.70155">
        <ele>2068.491682</ele>
        <time>2021-11-03T12:28:51.499Z</time>
      </trkpt>
      <trkpt lat="41.21101" lon="43.69906">
        <ele>2067.006957</ele>
        <time>2021-11-03T12:29:49.476Z</time>
      </trkpt>
      <trkpt lat="41.21248" lon="43.69683">
        <ele>2068.753216</ele>
        <time>2021-11-03T12:30:49.459Z</time>
      </trkpt>
      <trkpt lat="41.21385" lon="43.69458">
        <ele>2070.35554</ele>
        <time>2021-11-03T12:31:44.476Z</time>
      </trkpt>
      <trkpt lat="41.21529" lon="43.69175">
        <ele>2068.558645</ele>
        <time>2021-11-03T12:32:47.489Z</time>
      </trkpt>
      <trkpt lat="41.21633" lon="43.68918">
        <ele>2067.19306</ele>
        <time>2021-11-03T12:33:48.495Z</time>
      </trkpt>
      <trkpt lat="41.21708" lon="43.68641">
        <ele>2066.712804</ele>
        <time>2021-11-03T12:34:46.483Z</time>
      </trkpt>
      <trkpt lat="41.21779" lon="43.68394">
        <ele>2072.039928</ele>
        <time>2021-11-03T12:36:00.505Z</time>
      </trkpt>
      <trkpt lat="41.21854" lon="43.68115">
        <ele>2071.628677</ele>
        <time>2021-11-03T12:37:08.473Z</time>
      </trkpt>
      <trkpt lat="41.2192" lon="43.67838">
        <ele>2067.551982</ele>
        <time>2021-11-03T12:38:11.465Z</time>
      </trkpt>
      <trkpt lat="41.21988" lon="43.67545">
        <ele>2066.522699</ele>
        <time>2021-11-03T12:39:11.499Z</time>
      </trkpt>
      <trkpt lat="41.22056" lon="43.67244">
        <ele>2064.53776</ele>
        <time>2021-11-03T12:39:58.495Z</time>
      </trkpt>
      <trkpt lat="41.22123" lon="43.66954">
        <ele>2063.82534</ele>
        <time>2021-11-03T12:40:58.526Z</time>
      </trkpt>
      <trkpt lat="41.22193" lon="43.66662">
        <ele>2064.414596</ele>
        <time>2021-11-03T12:41:58.485Z</time>
      </trkpt>
      <trkpt lat="41.22263" lon="43.66341">
        <ele>2062.462569</ele>
        <time>2021-11-03T12:43:01.481Z</time>
      </trkpt>
      <trkpt lat="41.22322" lon="43.66049">
        <ele>2057.940641</ele>
        <time>2021-11-03T12:43:54.488Z</time>
      </trkpt>
      <trkpt lat="41.22388" lon="43.6573">
        <ele>2056.749191</ele>
        <time>2021-11-03T12:44:48.484Z</time>
      </trkpt>
      <trkpt lat="41.22499" lon="43.65458">
        <ele>2056.764303</ele>
        <time>2021-11-03T12:45:52.613Z</time>
      </trkpt>
      <trkpt lat="41.22628" lon="43.65257">
        <ele>2056.592394</ele>
        <time>2021-11-03T12:46:55.492Z</time>
      </trkpt>
      <trkpt lat="41.22771" lon="43.65011">
        <ele>2058.187958</ele>
        <time>2021-11-03T12:47:58.529Z</time>
      </trkpt>
      <trkpt lat="41.22768" lon="43.64722">
        <ele>2065.049479</ele>
        <time>2021-11-03T12:49:12.482Z</time>
      </trkpt>
      <trkpt lat="41.22791" lon="43.64444">
        <ele>2068.7773</ele>
        <time>2021-11-03T12:50:40.489Z</time>
      </trkpt>
      <trkpt lat="41.22882" lon="43.64181">
        <ele>2063.97453</ele>
        <time>2021-11-03T12:51:28.526Z</time>
      </trkpt>
      <trkpt lat="41.23035" lon="43.63859">
        <ele>2052.797416</ele>
        <time>2021-11-03T12:52:07.500Z</time>
      </trkpt>
      <trkpt lat="41.2322" lon="43.63531">
        <ele>2044.002922</ele>
        <time>2021-11-03T12:52:49.469Z</time>
      </trkpt>
      <trkpt lat="41.23348" lon="43.63307">
        <ele>2042.67812</ele>
        <time>2021-11-03T12:53:29.524Z</time>
      </trkpt>
      <trkpt lat="41.235" lon="43.63107">
        <ele>2039.379179</ele>
        <time>2021-11-03T12:54:11.494Z</time>
      </trkpt>
      <trkpt lat="41.2366" lon="43.6291">
        <ele>2035.671485</ele>
        <time>2021-11-03T12:54:55.513Z</time>
      </trkpt>
      <trkpt lat="41.2383" lon="43.62702">
        <ele>2032.308543</ele>
        <time>2021-11-03T12:55:51.527Z</time>
      </trkpt>
      <trkpt lat="41.24032" lon="43.62413">
        <ele>2023.96159</ele>
        <time>2021-11-03T12:56:30.485Z</time>
      </trkpt>
      <trkpt lat="41.24142" lon="43.62188">
        <ele>2017.077513</ele>
        <time>2021-11-03T12:56:50.473Z</time>
      </trkpt>
      <trkpt lat="41.24292" lon="43.61864">
        <ele>2008.545183</ele>
        <time>2021-11-03T12:57:29.468Z</time>
      </trkpt>
      <trkpt lat="41.24437" lon="43.61597">
        <ele>2002.753047</ele>
        <time>2021-11-03T12:58:09.488Z</time>
      </trkpt>
      <trkpt lat="41.24603" lon="43.6132">
        <ele>1994.954478</ele>
        <time>2021-11-03T12:58:40.522Z</time>
      </trkpt>
      <trkpt lat="41.24779" lon="43.61069">
        <ele>1994.026868</ele>
        <time>2021-11-03T12:59:36.499Z</time>
      </trkpt>
      <trkpt lat="41.24926" lon="43.60833">
        <ele>1994.475027</ele>
        <time>2021-11-03T13:00:27.475Z</time>
      </trkpt>
      <trkpt lat="41.25079" lon="43.60591">
        <ele>1995.480069</ele>
        <time>2021-11-03T13:01:31.495Z</time>
      </trkpt>
      <trkpt lat="41.25216" lon="43.60377">
        <ele>1999.609444</ele>
        <time>2021-11-03T13:02:51.490Z</time>
      </trkpt>
      <trkpt lat="41.2542" lon="43.60248">
        <ele>1996.825836</ele>
        <time>2021-11-03T13:03:37.481Z</time>
      </trkpt>
      <trkpt lat="41.25633" lon="43.60123">
        <ele>1992.733926</ele>
        <time>2021-11-03T13:04:26.506Z</time>
      </trkpt>
      <trkpt lat="41.25828" lon="43.6001">
        <ele>1996.103428</ele>
        <time>2021-11-03T13:05:26.493Z</time>
      </trkpt>
      <trkpt lat="41.26069" lon="43.59872">
        <ele>1992.827718</ele>
        <time>2021-11-03T13:06:17.532Z</time>
      </trkpt>
      <trkpt lat="41.26341" lon="43.59709">
        <ele>1976.753209</ele>
        <time>2021-11-03T13:06:52.491Z</time>
      </trkpt>
      <trkpt lat="41.26516" lon="43.59406">
        <ele>1962.941903</ele>
        <time>2021-11-03T13:07:32.473Z</time>
      </trkpt>
      <trkpt lat="41.26544" lon="43.59144">
        <ele>1960.339689</ele>
        <time>2021-11-03T13:08:22.481Z</time>
      </trkpt>
      <trkpt lat="41.26482" lon="43.5913">
        <ele>1960.339689</ele>
        <time>2021-11-03T13:20:15.532Z</time>
      </trkpt>
    </trkseg>
  </trk>
</gpx>